Emma, Kentucky
Current Conditions -  °F | °C
As of 3:55 PM on Friday 31 Oct 2014 (Local Time) from KSJS Reporting Station
Light Rain Light Rain  
Wind Chill: 44°   Ceiling: 1900
Heat Index: 44°   Visibility: 10mi
Dew Point: 42°   Wind: 0mph
Humidity: 92%   Direction: NA
Pressure: 29.87"   Gusts: NA
Location:  37.6405°N, 82.8256°W
Report Text: KSJS 311955Z AUTO 00000KT 10SM -RA SCT012 BKN019 OVC024 07/06 A2987 RMK AO2 T00680056
Loading
Personal Weather Stations






























Interactive Weather Map
Tropical Storm Tracking
New forecast layout! Learn more

10-Day Weather Forecast

Advertisements
Track Severe Weather on mobile